Time,TemperatureF,DewpointF,PressureIn,WindDirection,WindDirectionDegrees,WindSpeedMPH,WindSpeedGustMPH,Humidity,HourlyPrecipIn,Conditions,Clouds,dailyrainin,SoftwareType,DateUTC
2013-06-08 00:10:00,52.1,48.0,29.91,SW,221,0.0,1.0,86,0.00,,,0.00,weatherlink.com 1.10,2013-06-08 04:10:00,
2013-06-08 00:25:00,51.3,48.0,29.91,SSW,213,0.0,1.0,87,0.00,,,0.00,weatherlink.com 1.10,2013-06-08 04:25:00,
2013-06-08 00:40:00,51.4,48.0,29.91,SSE,150,0.0,1.0,87,0.00,,,0.00,weatherlink.com 1.10,2013-06-08 04:40:00,
2013-06-08 00:55:00,51.1,48.0,29.91,SSE,163,0.0,1.0,88,0.00,,,0.00,weatherlink.com 1.10,2013-06-08 04:55:00,
2013-06-08 01:10:00,51.5,48.0,29.91,SSW,197,1.0,2.0,89,0.00,,,0.00,weatherlink.com 1.10,2013-06-08 05:10:00,
2013-06-08 01:26:00,51.3,48.0,29.91,SW,217,0.0,2.0,88,0.00,,,0.00,weatherlink.com 1.10,2013-06-08 05:26:00,
2013-06-08 01:41:00,50.1,47.0,29.91,SW,217,2.0,2.0,88,0.00,,,0.00,weatherlink.com 1.10,2013-06-08 05:41:00,
2013-06-08 01:56:00,48.9,46.0,29.91,South,186,0.0,3.0,90,0.00,,,0.00,weatherlink.com 1.10,2013-06-08 05:56:00,
2013-06-08 02:11:00,48.8,46.0,29.91,SSW,211,2.0,3.0,91,0.00,,,0.00,weatherlink.com 1.10,2013-06-08 06:11:00,
2013-06-08 02:26:00,48.3,46.0,29.91,SSW,211,3.0,3.0,91,0.00,,,0.00,weatherlink.com 1.10,2013-06-08 06:26:00,
2013-06-08 02:41:00,47.8,45.0,29.91,SSW,211,0.0,2.0,91,0.00,,,0.00,weatherlink.com 1.10,2013-06-08 06:41:00,
2013-06-08 02:56:00,47.4,46.0,29.91,SSW,212,2.0,3.0,93,0.00,,,0.00,weatherlink.com 1.10,2013-06-08 06:56:00,
2013-06-08 03:11:00,48.1,47.0,29.91,SW,219,2.0,4.0,94,0.00,,,0.00,weatherlink.com 1.10,2013-06-08 07:11:00,
2013-06-08 03:26:00,47.5,46.0,29.91,SSW,211,1.0,3.0,93,0.00,,,0.00,weatherlink.com 1.10,2013-06-08 07:26:00,
2013-06-08 03:41:00,47.5,46.0,29.90,SSW,213,0.0,3.0,93,0.00,,,0.00,weatherlink.com 1.10,2013-06-08 07:41:00,
2013-06-08 03:56:00,46.8,45.0,29.90,SW,219,2.0,3.0,92,0.00,,,0.00,weatherlink.com 1.10,2013-06-08 07:56:00,
2013-06-08 04:26:00,45.9,44.0,29.90,SW,216,1.0,2.0,93,0.00,,,0.00,weatherlink.com 1.10,2013-06-08 08:26:00,
2013-06-08 04:41:00,45.9,44.0,29.90,South,183,1.0,2.0,94,0.00,,,0.00,weatherlink.com 1.10,2013-06-08 08:41:00,
2013-06-08 04:56:00,46.3,45.0,29.90,WSW,239,1.0,3.0,94,0.00,,,0.00,weatherlink.com 1.10,2013-06-08 08:56:00,
2013-06-08 05:11:00,45.8,44.0,29.90,SW,230,0.0,3.0,92,0.00,,,0.00,weatherlink.com 1.10,2013-06-08 09:11:00,
2013-06-08 05:41:00,45.2,43.0,29.91,SSW,205,3.0,3.0,92,0.00,,,0.00,weatherlink.com 1.10,2013-06-08 09:41:00,
2013-06-08 05:56:00,44.9,43.0,29.91,SSW,202,0.0,3.0,92,0.00,,,0.00,weatherlink.com 1.10,2013-06-08 09:56:00,
2013-06-08 06:26:00,44.4,42.0,29.92,SSW,206,0.0,3.0,92,0.00,,,0.00,weatherlink.com 1.10,2013-06-08 10:26:00,
2013-06-08 06:41:00,44.4,42.0,29.92,South,179,0.0,3.0,92,0.00,,,0.00,weatherlink.com 1.10,2013-06-08 10:41:00,
2013-06-08 06:56:00,45.0,43.0,29.92,ESE,102,0.0,2.0,93,0.00,,,0.00,weatherlink.com 1.10,2013-06-08 10:56:00,
2013-06-08 07:11:00,47.7,46.0,29.92,South,178,0.0,2.0,92,0.00,,,0.00,weatherlink.com 1.10,2013-06-08 11:11:00,
2013-06-08 07:26:00,51.3,49.0,29.93,SSW,196,0.0,4.0,90,0.00,,,0.00,weatherlink.com 1.10,2013-06-08 11:26:00,
2013-06-08 07:41:00,53.2,47.0,29.93,WNW,301,3.0,5.0,80,0.00,,,0.00,weatherlink.com 1.10,2013-06-08 11:41:00,
2013-06-08 07:56:00,52.9,48.0,29.94,NW,317,0.0,2.0,82,0.00,,,0.00,weatherlink.com 1.10,2013-06-08 11:56:00,
2013-06-08 08:12:00,55.4,49.0,29.94,NW,317,0.0,2.0,78,0.00,,,0.00,weatherlink.com 1.10,2013-06-08 12:12:00,
2013-06-08 08:26:00,57.1,49.0,29.94,NE,35,0.0,0.0,73,0.00,,,0.00,weatherlink.com 1.10,2013-06-08 12:26:00,
2013-06-08 08:41:00,57.7,48.0,29.95,NNE,26,4.0,4.0,69,0.00,,,0.00,weatherlink.com 1.10,2013-06-08 12:41:00,
2013-06-08 08:56:00,55.9,48.0,29.95,NNE,15,4.0,7.0,76,0.00,,,0.00,weatherlink.com 1.10,2013-06-08 12:56:00,
2013-06-08 09:11:00,55.2,50.0,29.96,NNE,19,3.0,6.0,81,0.00,,,0.00,weatherlink.com 1.10,2013-06-08 13:11:00,
2013-06-08 09:26:00,54.5,49.0,29.96,North,350,3.0,4.0,83,0.00,,,0.00,weatherlink.com 1.10,2013-06-08 13:26:00,
2013-06-08 09:41:00,55.1,50.0,29.96,ENE,61,2.0,5.0,83,0.00,,,0.00,weatherlink.com 1.10,2013-06-08 13:41:00,
2013-06-08 09:56:00,55.8,50.0,29.96,NNE,22,3.0,5.0,81,0.00,,,0.00,weatherlink.com 1.10,2013-06-08 13:56:00,
2013-06-08 10:11:00,56.2,50.0,29.96,NNE,27,3.0,4.0,79,0.00,,,0.00,weatherlink.com 1.10,2013-06-08 14:11:00,
2013-06-08 10:26:00,56.7,50.0,29.96,NE,40,3.0,5.0,77,0.00,,,0.00,weatherlink.com 1.10,2013-06-08 14:26:00,
2013-06-08 10:41:00,56.8,50.0,29.95,North,5,1.0,4.0,78,0.00,,,0.00,weatherlink.com 1.10,2013-06-08 14:41:00,
2013-06-08 10:57:00,57.0,51.0,29.95,ENE,59,3.0,5.0,79,0.00,,,0.00,weatherlink.com 1.10,2013-06-08 14:57:00,
2013-06-08 11:11:00,56.9,50.0,29.95,North,360,2.0,5.0,77,0.00,,,0.00,weatherlink.com 1.10,2013-06-08 15:11:00,
2013-06-08 11:27:00,56.1,50.0,29.95,NW,325,4.0,5.0,79,0.00,,,0.00,weatherlink.com 1.10,2013-06-08 15:27:00,
2013-06-08 11:42:00,56.2,49.0,29.95,NW,320,3.0,4.0,77,0.00,,,0.00,weatherlink.com 1.10,2013-06-08 15:42:00,
2013-06-08 11:57:00,56.2,49.0,29.95,NW,323,3.0,4.0,78,0.00,,,0.00,weatherlink.com 1.10,2013-06-08 15:57:00,
2013-06-08 12:12:00,57.5,50.0,29.96,North,350,3.0,4.0,77,0.00,,,0.00,weatherlink.com 1.10,2013-06-08 16:12:00,
2013-06-08 12:27:00,57.3,51.0,29.96,NW,320,3.0,5.0,79,0.00,,,0.00,weatherlink.com 1.10,2013-06-08 16:27:00,
2013-06-08 12:42:00,56.8,49.0,29.96,NW,311,2.0,4.0,75,0.00,,,0.00,weatherlink.com 1.10,2013-06-08 16:42:00,
2013-06-08 12:57:00,57.5,49.0,29.96,NW,320,2.0,4.0,73,0.00,,,0.00,weatherlink.com 1.10,2013-06-08 16:57:00,
2013-06-08 13:12:00,59.3,49.0,29.96,ENE,77,2.0,3.0,68,0.00,,,0.00,weatherlink.com 1.10,2013-06-08 17:12:00,
2013-06-08 13:27:00,60.8,48.0,29.96,SW,221,2.0,4.0,64,0.00,,,0.00,weatherlink.com 1.10,2013-06-08 17:27:00,
2013-06-08 13:42:00,63.4,45.0,29.96,SSW,207,4.0,5.0,51,0.00,,,0.00,weatherlink.com 1.10,2013-06-08 17:42:00,
2013-06-08 13:57:00,64.9,41.0,29.96,SSW,211,4.0,7.0,42,0.00,,,0.00,weatherlink.com 1.10,2013-06-08 17:57:00,
2013-06-08 14:12:00,65.6,43.0,29.96,WSW,240,2.0,6.0,44,0.00,,,0.00,weatherlink.com 1.10,2013-06-08 18:12:00,
2013-06-08 14:27:00,65.9,41.0,29.96,SW,215,6.0,7.0,41,0.00,,,0.00,weatherlink.com 1.10,2013-06-08 18:27:00,
2013-06-08 14:42:00,66.0,43.0,29.95,SSE,159,3.0,9.0,43,0.00,,,0.00,weatherlink.com 1.10,2013-06-08 18:42:00,
2013-06-08 14:57:00,67.1,42.0,29.95,South,171,5.0,7.0,41,0.00,,,0.00,weatherlink.com 1.10,2013-06-08 18:57:00,
2013-06-08 15:12:00,67.2,45.0,29.95,WSW,252,2.0,7.0,45,0.00,,,0.00,weatherlink.com 1.10,2013-06-08 19:12:00,
2013-06-08 15:27:00,66.4,41.0,29.95,SSW,202,7.0,10.0,39,0.00,,,0.00,weatherlink.com 1.10,2013-06-08 19:27:00,
2013-06-08 15:42:00,65.8,41.0,29.95,West,267,3.0,10.0,40,0.00,,,0.00,weatherlink.com 1.10,2013-06-08 19:42:00,
2013-06-08 15:57:00,65.1,42.0,29.95,SW,226,5.0,8.0,43,0.00,,,0.00,weatherlink.com 1.10,2013-06-08 19:57:00,
2013-06-08 16:12:00,64.1,42.0,29.95,WSW,244,5.0,9.0,44,0.00,,,0.00,weatherlink.com 1.10,2013-06-08 20:12:00,
2013-06-08 16:27:00,63.8,41.0,29.95,SW,221,2.0,7.0,44,0.00,,,0.00,weatherlink.com 1.10,2013-06-08 20:27:00,
2013-06-08 16:42:00,63.7,42.0,29.96,WSW,242,4.0,8.0,46,0.00,,,0.00,weatherlink.com 1.10,2013-06-08 20:42:00,
2013-06-08 16:57:00,64.3,46.0,29.96,NW,325,1.0,6.0,51,0.00,,,0.00,weatherlink.com 1.10,2013-06-08 20:57:00,
2013-06-08 17:12:00,65.0,42.0,29.96,West,273,1.0,7.0,43,0.00,,,0.00,weatherlink.com 1.10,2013-06-08 21:12:00,
2013-06-08 17:27:00,66.0,44.0,29.96,WSW,250,4.0,4.0,45,0.00,,,0.00,weatherlink.com 1.10,2013-06-08 21:27:00,
2013-06-08 17:42:00,66.1,46.0,29.97,NNE,13,3.0,5.0,49,0.00,,,0.00,weatherlink.com 1.10,2013-06-08 21:42:00,
2013-06-08 17:57:00,64.2,47.0,29.97,North,355,3.0,4.0,54,0.00,,,0.00,weatherlink.com 1.10,2013-06-08 21:57:00,
2013-06-08 18:12:00,58.5,51.0,29.98,NW,316,5.0,9.0,75,0.00,,,0.00,weatherlink.com 1.10,2013-06-08 22:12:00,
2013-06-08 18:27:00,57.5,51.0,29.98,WNW,300,2.0,6.0,79,0.00,,,0.00,weatherlink.com 1.10,2013-06-08 22:27:00,
2013-06-08 18:42:00,57.9,49.0,29.98,NW,319,2.0,3.0,73,0.00,,,0.00,weatherlink.com 1.10,2013-06-08 22:42:00,
2013-06-08 18:57:00,58.5,49.0,29.98,NW,323,0.0,2.0,71,0.00,,,0.00,weatherlink.com 1.10,2013-06-08 22:57:00,
2013-06-08 19:12:00,58.7,49.0,29.99,NW,317,2.0,3.0,69,0.00,,,0.00,weatherlink.com 1.10,2013-06-08 23:12:00,
2013-06-08 19:28:00,57.9,48.0,29.99,NW,317,0.0,2.0,70,0.00,,,0.00,weatherlink.com 1.10,2013-06-08 23:28:00,
2013-06-08 19:43:00,58.2,49.0,29.99,NW,317,0.0,1.0,71,0.00,,,0.00,weatherlink.com 1.10,2013-06-08 23:43:00,
2013-06-08 19:58:00,59.3,51.0,30.00,NW,305,0.0,1.0,73,0.00,,,0.00,weatherlink.com 1.10,2013-06-08 23:58:00,
2013-06-08 20:13:00,60.2,50.0,30.00,SE,143,4.0,5.0,68,0.00,,,0.00,weatherlink.com 1.10,2013-06-09 00:13:00,
2013-06-08 20:28:00,61.6,50.0,30.00,SSE,164,0.0,4.0,65,0.00,,,0.00,weatherlink.com 1.10,2013-06-09 00:28:00,
2013-06-08 20:43:00,61.0,49.0,30.00,SSW,192,2.0,4.0,64,0.00,,,0.00,weatherlink.com 1.10,2013-06-09 00:43:00,
2013-06-08 20:58:00,61.0,49.0,30.00,SSW,202,2.0,5.0,66,0.00,,,0.00,weatherlink.com 1.10,2013-06-09 00:58:00,
2013-06-08 21:13:00,60.4,47.0,30.00,SSW,207,5.0,7.0,62,0.00,,,0.00,weatherlink.com 1.10,2013-06-09 01:13:00,
2013-06-08 21:28:00,59.5,46.0,30.01,SSE,167,0.0,6.0,61,0.00,,,0.00,weatherlink.com 1.10,2013-06-09 01:28:00,
2013-06-08 21:43:00,58.5,46.0,30.02,West,265,3.0,3.0,63,0.00,,,0.00,weatherlink.com 1.10,2013-06-09 01:43:00,
2013-06-08 21:58:00,57.3,45.0,30.02,SW,233,6.0,6.0,63,0.00,,,0.00,weatherlink.com 1.10,2013-06-09 01:58:00,
2013-06-08 22:13:00,56.7,44.0,30.03,SSW,206,5.0,9.0,62,0.00,,,0.00,weatherlink.com 1.10,2013-06-09 02:13:00,
2013-06-08 22:28:00,56.3,43.0,30.03,South,186,2.0,7.0,61,0.00,,,0.00,weatherlink.com 1.10,2013-06-09 02:28:00,
2013-06-08 22:43:00,56.0,43.0,30.04,SSE,167,1.0,5.0,61,0.00,,,0.00,weatherlink.com 1.10,2013-06-09 02:43:00,
2013-06-08 22:58:00,56.0,42.0,30.04,South,187,1.0,4.0,60,0.00,,,0.00,weatherlink.com 1.10,2013-06-09 02:58:00,
2013-06-08 23:13:00,55.9,42.0,30.04,SW,227,3.0,7.0,60,0.00,,,0.00,weatherlink.com 1.10,2013-06-09 03:13:00,
2013-06-08 23:28:00,56.1,41.0,30.04,SSW,208,2.0,8.0,58,0.00,,,0.00,weatherlink.com 1.10,2013-06-09 03:28:00,
2013-06-08 23:43:00,56.0,41.0,30.04,SSW,198,7.0,10.0,58,0.00,,,0.00,weatherlink.com 1.10,2013-06-09 03:43:00,
2013-06-08 23:58:00,55.7,41.0,30.04,SSW,206,4.0,7.0,58,0.00,,,0.00,weatherlink.com 1.10,2013-06-09 03:58:00,